sensor_id;sensor_type;location;lat;lon;timestamp;temperature;humidity
19680;DHT22;9989;48.962;9.182;2022-07-25T00:02:25;23.90;97.20
19680;DHT22;9989;48.962;9.182;2022-07-25T00:04:51;23.90;97.10
19680;DHT22;9989;48.962;9.182;2022-07-25T00:07:17;23.90;97.30
19680;DHT22;9989;48.962;9.182;2022-07-25T00:09:42;23.90;97.50
19680;DHT22;9989;48.962;9.182;2022-07-25T00:12:08;23.90;97.40
19680;DHT22;9989;48.962;9.182;2022-07-25T00:14:34;23.90;97.50
19680;DHT22;9989;48.962;9.182;2022-07-25T00:16:59;23.90;97.60
19680;DHT22;9989;48.962;9.182;2022-07-25T00:19:25;23.90;97.70
19680;DHT22;9989;48.962;9.182;2022-07-25T00:21:51;23.80;97.90
19680;DHT22;9989;48.962;9.182;2022-07-25T00:24:16;23.80;98.00
19680;DHT22;9989;48.962;9.182;2022-07-25T00:26:42;23.80;97.90
19680;DHT22;9989;48.962;9.182;2022-07-25T00:29:07;23.80;98.00
19680;DHT22;9989;48.962;9.182;2022-07-25T00:31:33;23.80;97.80
19680;DHT22;9989;48.962;9.182;2022-07-25T00:33:59;23.70;97.80
19680;DHT22;9989;48.962;9.182;2022-07-25T00:36:24;23.70;97.80
19680;DHT22;9989;48.962;9.182;2022-07-25T00:38:50;23.80;97.90
19680;DHT22;9989;48.962;9.182;2022-07-25T00:41:15;23.70;98.00
19680;DHT22;9989;48.962;9.182;2022-07-25T00:43:42;23.70;98.40
19680;DHT22;9989;48.962;9.182;2022-07-25T00:46:11;23.60;98.50
19680;DHT22;9989;48.962;9.182;2022-07-25T00:48:37;23.60;98.50
19680;DHT22;9989;48.962;9.182;2022-07-25T00:51:04;23.60;98.50
19680;DHT22;9989;48.962;9.182;2022-07-25T00:53:30;23.60;98.40
19680;DHT22;9989;48.962;9.182;2022-07-25T00:55:55;23.60;98.50
19680;DHT22;9989;48.962;9.182;2022-07-25T00:58:21;23.50;98.60
19680;DHT22;9989;48.962;9.182;2022-07-25T01:00:47;23.50;98.70
19680;DHT22;9989;48.962;9.182;2022-07-25T01:03:12;23.50;98.70
19680;DHT22;9989;48.962;9.182;2022-07-25T01:05:38;23.50;98.90
19680;DHT22;9989;48.962;9.182;2022-07-25T01:08:04;23.40;99.10
19680;DHT22;9989;48.962;9.182;2022-07-25T01:10:31;23.40;99.30
19680;DHT22;9989;48.962;9.182;2022-07-25T01:12:57;23.40;99.30
19680;DHT22;9989;48.962;9.182;2022-07-25T01:15:23;23.30;99.40
19680;DHT22;9989;48.962;9.182;2022-07-25T01:17:49;23.30;99.50
19680;DHT22;9989;48.962;9.182;2022-07-25T01:20:20;23.30;99.90
19680;DHT22;9989;48.962;9.182;2022-07-25T01:22:46;23.30;99.90
19680;DHT22;9989;48.962;9.182;2022-07-25T01:25:13;23.20;99.90
19680;DHT22;9989;48.962;9.182;2022-07-25T01:27:39;23.20;99.90
19680;DHT22;9989;48.962;9.182;2022-07-25T01:30:07;23.20;99.90
19680;DHT22;9989;48.962;9.182;2022-07-25T01:32:34;23.20;99.90
19680;DHT22;9989;48.962;9.182;2022-07-25T01:35:00;23.10;99.90
19680;DHT22;9989;48.962;9.182;2022-07-25T01:37:26;23.10;99.90
19680;DHT22;9989;48.962;9.182;2022-07-25T01:39:51;23.10;99.90
19680;DHT22;9989;48.962;9.182;2022-07-25T01:42:17;23.10;99.90
19680;DHT22;9989;48.962;9.182;2022-07-25T01:44:43;23.00;99.90
19680;DHT22;9989;48.962;9.182;2022-07-25T01:47:08;23.00;99.90
19680;DHT22;9989;48.962;9.182;2022-07-25T01:49:34;23.00;99.90
19680;DHT22;9989;48.962;9.182;2022-07-25T01:51:59;23.00;99.90
19680;DHT22;9989;48.962;9.182;2022-07-25T01:54:25;23.00;99.90
19680;DHT22;9989;48.962;9.182;2022-07-25T01:56:51;23.00;99.90
19680;DHT22;9989;48.962;9.182;2022-07-25T01:59:16;23.00;99.90
19680;DHT22;9989;48.962;9.182;2022-07-25T02:01:42;23.10;99.90
19680;DHT22;9989;48.962;9.182;2022-07-25T02:04:08;23.10;99.90
19680;DHT22;9989;48.962;9.182;2022-07-25T02:06:34;23.00;99.90
19680;DHT22;9989;48.962;9.182;2022-07-25T02:09:00;23.00;99.90
19680;DHT22;9989;48.962;9.182;2022-07-25T02:11:26;22.90;99.90
19680;DHT22;9989;48.962;9.182;2022-07-25T02:13:52;22.90;99.90
19680;DHT22;9989;48.962;9.182;2022-07-25T02:16:17;22.90;99.90
19680;DHT22;9989;48.962;9.182;2022-07-25T02:18:43;22.90;99.90
19680;DHT22;9989;48.962;9.182;2022-07-25T02:21:09;22.90;99.90
19680;DHT22;9989;48.962;9.182;2022-07-25T02:23:35;22.80;99.90
19680;DHT22;9989;48.962;9.182;2022-07-25T02:26:01;22.80;99.90
19680;DHT22;9989;48.962;9.182;2022-07-25T02:28:27;22.80;99.90
19680;DHT22;9989;48.962;9.182;2022-07-25T02:30:52;22.80;99.90
19680;DHT22;9989;48.962;9.182;2022-07-25T02:33:18;22.80;99.90
19680;DHT22;9989;48.962;9.182;2022-07-25T02:35:44;22.80;99.90
19680;DHT22;9989;48.962;9.182;2022-07-25T02:38:10;22.80;99.90
19680;DHT22;9989;48.962;9.182;2022-07-25T02:40:35;22.80;99.90
19680;DHT22;9989;48.962;9.182;2022-07-25T02:43:01;22.70;99.90
19680;DHT22;9989;48.962;9.182;2022-07-25T02:45:26;22.70;99.90
19680;DHT22;9989;48.962;9.182;2022-07-25T02:47:52;22.70;99.90
19680;DHT22;9989;48.962;9.182;2022-07-25T02:50:18;22.70;99.90
19680;DHT22;9989;48.962;9.182;2022-07-25T02:52:44;22.60;99.90
19680;DHT22;9989;48.962;9.182;2022-07-25T02:55:10;22.60;99.90
19680;DHT22;9989;48.962;9.182;2022-07-25T02:57:36;22.60;99.90
19680;DHT22;9989;48.962;9.182;2022-07-25T03:00:03;22.60;99.90
19680;DHT22;9989;48.962;9.182;2022-07-25T03:02:29;22.50;99.90
19680;DHT22;9989;48.962;9.182;2022-07-25T03:04:54;22.50;99.90
19680;DHT22;9989;48.962;9.182;2022-07-25T03:07:20;22.50;99.90
19680;DHT22;9989;48.962;9.182;2022-07-25T03:09:46;22.40;99.90
19680;DHT22;9989;48.962;9.182;2022-07-25T03:12:11;22.40;99.90
19680;DHT22;9989;48.962;9.182;2022-07-25T03:14:37;22.40;99.90
19680;DHT22;9989;48.962;9.182;2022-07-25T03:17:02;22.40;99.90
19680;DHT22;9989;48.962;9.182;2022-07-25T03:19:28;22.40;99.90
19680;DHT22;9989;48.962;9.182;2022-07-25T03:21:53;22.40;99.90
19680;DHT22;9989;48.962;9.182;2022-07-25T03:24:19;22.40;99.90
19680;DHT22;9989;48.962;9.182;2022-07-25T03:26:44;22.40;99.90
19680;DHT22;9989;48.962;9.182;2022-07-25T03:29:10;22.40;99.90
19680;DHT22;9989;48.962;9.182;2022-07-25T03:31:37;22.40;99.90
19680;DHT22;9989;48.962;9.182;2022-07-25T03:34:03;22.40;99.90
19680;DHT22;9989;48.962;9.182;2022-07-25T03:36:28;22.30;99.90
19680;DHT22;9989;48.962;9.182;2022-07-25T03:38:54;22.30;99.90
19680;DHT22;9989;48.962;9.182;2022-07-25T03:41:21;22.30;99.90
19680;DHT22;9989;48.962;9.182;2022-07-25T03:43:46;22.30;99.90
19680;DHT22;9989;48.962;9.182;2022-07-25T03:46:12;22.30;99.90
19680;DHT22;9989;48.962;9.182;2022-07-25T03:48:38;22.30;99.90
19680;DHT22;9989;48.962;9.182;2022-07-25T03:51:03;22.20;99.90
19680;DHT22;9989;48.962;9.182;2022-07-25T03:53:29;22.20;99.90
19680;DHT22;9989;48.962;9.182;2022-07-25T03:55:54;22.20;99.90
19680;DHT22;9989;48.962;9.182;2022-07-25T03:58:20;22.20;99.90
19680;DHT22;9989;48.962;9.182;2022-07-25T04:00:46;22.20;99.90
19680;DHT22;9989;48.962;9.182;2022-07-25T04:03:13;22.10;99.90
19680;DHT22;9989;48.962;9.182;2022-07-25T04:05:39;22.10;99.90
19680;DHT22;9989;48.962;9.182;2022-07-25T04:08:05;22.10;99.90
19680;DHT22;9989;48.962;9.182;2022-07-25T04:10:30;22.10;99.90
19680;DHT22;9989;48.962;9.182;2022-07-25T04:12:56;22.10;99.90
19680;DHT22;9989;48.962;9.182;2022-07-25T04:15:21;22.20;99.90
19680;DHT22;9989;48.962;9.182;2022-07-25T04:17:47;22.20;99.90
19680;DHT22;9989;48.962;9.182;2022-07-25T04:20:13;22.20;99.90
19680;DHT22;9989;48.962;9.182;2022-07-25T04:22:38;22.20;99.90
19680;DHT22;9989;48.962;9.182;2022-07-25T04:25:04;22.20;99.90
19680;DHT22;9989;48.962;9.182;2022-07-25T04:27:30;22.20;99.90
19680;DHT22;9989;48.962;9.182;2022-07-25T04:29:56;22.20;99.90
19680;DHT22;9989;48.962;9.182;2022-07-25T04:32:23;22.20;99.90
19680;DHT22;9989;48.962;9.182;2022-07-25T04:34:48;22.30;99.90
19680;DHT22;9989;48.962;9.182;2022-07-25T04:37:15;22.30;99.90
19680;DHT22;9989;48.962;9.182;2022-07-25T04:39:41;22.30;99.90
19680;DHT22;9989;48.962;9.182;2022-07-25T04:42:06;22.30;99.90
19680;DHT22;9989;48.962;9.182;2022-07-25T04:44:32;22.30;99.90
19680;DHT22;9989;48.962;9.182;2022-07-25T04:46:58;22.40;99.90
19680;DHT22;9989;48.962;9.182;2022-07-25T04:49:23;22.40;99.90
19680;DHT22;9989;48.962;9.182;2022-07-25T04:51:49;22.40;99.90
19680;DHT22;9989;48.962;9.182;2022-07-25T04:54:15;22.50;99.90
19680;DHT22;9989;48.962;9.182;2022-07-25T04:56:40;22.50;99.90
19680;DHT22;9989;48.962;9.182;2022-07-25T04:59:06;22.60;99.90
19680;DHT22;9989;48.962;9.182;2022-07-25T05:01:31;22.60;99.90
19680;DHT22;9989;48.962;9.182;2022-07-25T05:03:57;22.70;99.90
19680;DHT22;9989;48.962;9.182;2022-07-25T05:06:22;22.70;99.90
19680;DHT22;9989;48.962;9.182;2022-07-25T05:08:48;22.70;99.90
19680;DHT22;9989;48.962;9.182;2022-07-25T05:11:14;22.80;99.90
19680;DHT22;9989;48.962;9.182;2022-07-25T05:13:39;22.90;99.90
19680;DHT22;9989;48.962;9.182;2022-07-25T05:16:05;23.00;99.90
19680;DHT22;9989;48.962;9.182;2022-07-25T05:18:32;23.10;99.90
19680;DHT22;9989;48.962;9.182;2022-07-25T05:20:58;23.10;99.90
19680;DHT22;9989;48.962;9.182;2022-07-25T05:23:24;23.20;99.90
19680;DHT22;9989;48.962;9.182;2022-07-25T05:25:49;23.20;99.90
19680;DHT22;9989;48.962;9.182;2022-07-25T05:28:15;23.20;99.90
19680;DHT22;9989;48.962;9.182;2022-07-25T05:30:40;23.30;99.90
19680;DHT22;9989;48.962;9.182;2022-07-25T05:33:06;23.30;99.90
19680;DHT22;9989;48.962;9.182;2022-07-25T05:35:32;23.30;99.90
19680;DHT22;9989;48.962;9.182;2022-07-25T05:37:57;23.40;99.90
19680;DHT22;9989;48.962;9.182;2022-07-25T05:40:23;23.50;99.90
19680;DHT22;9989;48.962;9.182;2022-07-25T05:42:48;23.50;99.90
19680;DHT22;9989;48.962;9.182;2022-07-25T05:45:14;23.60;99.90
19680;DHT22;9989;48.962;9.182;2022-07-25T05:47:40;23.60;99.90
19680;DHT22;9989;48.962;9.182;2022-07-25T05:50:05;23.70;99.90
19680;DHT22;9989;48.962;9.182;2022-07-25T05:52:31;23.80;99.90
19680;DHT22;9989;48.962;9.182;2022-07-25T05:54:57;23.80;99.90
19680;DHT22;9989;48.962;9.182;2022-07-25T05:57:22;23.90;99.90
19680;DHT22;9989;48.962;9.182;2022-07-25T05:59:48;24.00;99.90
19680;DHT22;9989;48.962;9.182;2022-07-25T06:02:14;24.00;99.90
19680;DHT22;9989;48.962;9.182;2022-07-25T06:04:39;24.10;99.90
19680;DHT22;9989;48.962;9.182;2022-07-25T06:07:05;24.10;99.90
19680;DHT22;9989;48.962;9.182;2022-07-25T06:09:30;24.20;99.90
19680;DHT22;9989;48.962;9.182;2022-07-25T06:11:56;24.20;99.90
19680;DHT22;9989;48.962;9.182;2022-07-25T06:14:22;24.30;99.90
19680;DHT22;9989;48.962;9.182;2022-07-25T06:16:47;24.30;99.90
19680;DHT22;9989;48.962;9.182;2022-07-25T06:19:13;24.40;99.90
19680;DHT22;9989;48.962;9.182;2022-07-25T06:21:39;24.40;99.90
19680;DHT22;9989;48.962;9.182;2022-07-25T06:24:04;24.50;99.90
19680;DHT22;9989;48.962;9.182;2022-07-25T06:26:30;24.50;99.90
19680;DHT22;9989;48.962;9.182;2022-07-25T06:28:56;24.60;99.90
19680;DHT22;9989;48.962;9.182;2022-07-25T06:31:21;24.60;99.90
19680;DHT22;9989;48.962;9.182;2022-07-25T06:33:47;24.70;99.90
19680;DHT22;9989;48.962;9.182;2022-07-25T06:36:12;24.70;99.90
19680;DHT22;9989;48.962;9.182;2022-07-25T06:38:38;24.80;99.90
19680;DHT22;9989;48.962;9.182;2022-07-25T06:41:04;24.80;99.90
19680;DHT22;9989;48.962;9.182;2022-07-25T06:43:29;24.80;99.90
19680;DHT22;9989;48.962;9.182;2022-07-25T06:45:55;24.90;99.90
19680;DHT22;9989;48.962;9.182;2022-07-25T06:48:20;25.00;99.90
19680;DHT22;9989;48.962;9.182;2022-07-25T06:50:49;25.10;99.90
19680;DHT22;9989;48.962;9.182;2022-07-25T06:53:14;25.10;99.90
19680;DHT22;9989;48.962;9.182;2022-07-25T06:55:40;25.20;99.90
19680;DHT22;9989;48.962;9.182;2022-07-25T06:58:06;25.30;99.90
19680;DHT22;9989;48.962;9.182;2022-07-25T07:00:31;25.40;99.90
19680;DHT22;9989;48.962;9.182;2022-07-25T07:02:59;25.40;99.90
19680;DHT22;9989;48.962;9.182;2022-07-25T07:05:27;25.50;99.90
19680;DHT22;9989;48.962;9.182;2022-07-25T07:07:53;25.60;99.90
19680;DHT22;9989;48.962;9.182;2022-07-25T07:10:20;25.80;99.90
19680;DHT22;9989;48.962;9.182;2022-07-25T07:12:47;25.90;99.90
19680;DHT22;9989;48.962;9.182;2022-07-25T07:15:13;25.90;99.90
19680;DHT22;9989;48.962;9.182;2022-07-25T07:17:39;26.00;99.90
19680;DHT22;9989;48.962;9.182;2022-07-25T07:20:06;26.10;99.90
19680;DHT22;9989;48.962;9.182;2022-07-25T07:22:42;26.10;99.90
19680;DHT22;9989;48.962;9.182;2022-07-25T07:25:08;26.20;99.90
19680;DHT22;9989;48.962;9.182;2022-07-25T07:27:34;26.30;99.90
19680;DHT22;9989;48.962;9.182;2022-07-25T07:29:59;26.40;99.90
19680;DHT22;9989;48.962;9.182;2022-07-25T07:32:25;26.50;99.80
19680;DHT22;9989;48.962;9.182;2022-07-25T07:34:50;26.70;99.90
19680;DHT22;9989;48.962;9.182;2022-07-25T07:37:16;26.70;99.60
19680;DHT22;9989;48.962;9.182;2022-07-25T07:39:41;26.80;99.70
19680;DHT22;9989;48.962;9.182;2022-07-25T07:42:07;26.90;99.50
19680;DHT22;9989;48.962;9.182;2022-07-25T07:44:32;26.90;98.10
19680;DHT22;9989;48.962;9.182;2022-07-25T07:46:58;27.10;98.40
19680;DHT22;9989;48.962;9.182;2022-07-25T07:49:27;27.10;98.20
19680;DHT22;9989;48.962;9.182;2022-07-25T07:51:53;27.20;98.50
19680;DHT22;9989;48.962;9.182;2022-07-25T07:54:19;27.30;97.30
19680;DHT22;9989;48.962;9.182;2022-07-25T07:57:03;27.40;96.90
19680;DHT22;9989;48.962;9.182;2022-07-25T07:59:29;27.50;96.30
19680;DHT22;9989;48.962;9.182;2022-07-25T08:01:54;27.60;96.30
19680;DHT22;9989;48.962;9.182;2022-07-25T08:04:20;27.70;96.00
19680;DHT22;9989;48.962;9.182;2022-07-25T08:06:45;27.80;96.00
19680;DHT22;9989;48.962;9.182;2022-07-25T08:09:11;27.90;95.90
19680;DHT22;9989;48.962;9.182;2022-07-25T08:11:36;28.00;95.70
19680;DHT22;9989;48.962;9.182;2022-07-25T08:14:02;28.10;95.10
19680;DHT22;9989;48.962;9.182;2022-07-25T08:16:29;28.20;94.30
19680;DHT22;9989;48.962;9.182;2022-07-25T08:18:54;28.40;94.50
19680;DHT22;9989;48.962;9.182;2022-07-25T08:21:20;28.40;94.60
19680;DHT22;9989;48.962;9.182;2022-07-25T08:23:45;28.50;94.60
19680;DHT22;9989;48.962;9.182;2022-07-25T08:26:12;28.60;94.70
19680;DHT22;9989;48.962;9.182;2022-07-25T08:28:39;28.70;93.00
19680;DHT22;9989;48.962;9.182;2022-07-25T08:31:05;28.80;92.90
19680;DHT22;9989;48.962;9.182;2022-07-25T08:33:30;28.90;91.90
19680;DHT22;9989;48.962;9.182;2022-07-25T08:35:56;29.00;91.80
19680;DHT22;9989;48.962;9.182;2022-07-25T08:38:24;29.10;92.20
19680;DHT22;9989;48.962;9.182;2022-07-25T08:40:51;29.20;91.10
19680;DHT22;9989;48.962;9.182;2022-07-25T08:43:17;29.20;89.50
19680;DHT22;9989;48.962;9.182;2022-07-25T08:45:51;29.20;89.80
19680;DHT22;9989;48.962;9.182;2022-07-25T08:48:22;29.40;89.10
19680;DHT22;9989;48.962;9.182;2022-07-25T08:50:48;29.50;88.80
19680;DHT22;9989;48.962;9.182;2022-07-25T08:53:16;29.60;88.20
19680;DHT22;9989;48.962;9.182;2022-07-25T08:55:43;29.70;88.40
19680;DHT22;9989;48.962;9.182;2022-07-25T08:58:11;29.80;88.50
19680;DHT22;9989;48.962;9.182;2022-07-25T09:00:37;29.90;88.60
19680;DHT22;9989;48.962;9.182;2022-07-25T09:03:03;30.00;86.50
19680;DHT22;9989;48.962;9.182;2022-07-25T09:05:31;30.20;84.90
19680;DHT22;9989;48.962;9.182;2022-07-25T09:08:05;30.30;81.40
19680;DHT22;9989;48.962;9.182;2022-07-25T09:10:31;30.50;81.90
19680;DHT22;9989;48.962;9.182;2022-07-25T09:13:09;30.60;79.50
19680;DHT22;9989;48.962;9.182;2022-07-25T09:15:53;30.70;80.80
19680;DHT22;9989;48.962;9.182;2022-07-25T09:18:26;30.90;80.70
19680;DHT22;9989;48.962;9.182;2022-07-25T09:21:00;30.90;79.30
19680;DHT22;9989;48.962;9.182;2022-07-25T09:23:29;31.10;76.60
19680;DHT22;9989;48.962;9.182;2022-07-25T09:26:21;31.10;77.30
19680;DHT22;9989;48.962;9.182;2022-07-25T09:28:50;31.30;75.50
19680;DHT22;9989;48.962;9.182;2022-07-25T09:31:17;31.30;73.90
19680;DHT22;9989;48.962;9.182;2022-07-25T09:33:45;31.50;72.60
19680;DHT22;9989;48.962;9.182;2022-07-25T09:36:12;31.50;72.20
19680;DHT22;9989;48.962;9.182;2022-07-25T09:38:38;31.60;71.10
19680;DHT22;9989;48.962;9.182;2022-07-25T09:41:04;31.60;71.70
19680;DHT22;9989;48.962;9.182;2022-07-25T09:43:37;31.70;73.50
19680;DHT22;9989;48.962;9.182;2022-07-25T09:46:04;31.80;70.00
19680;DHT22;9989;48.962;9.182;2022-07-25T09:48:30;31.90;68.80
19680;DHT22;9989;48.962;9.182;2022-07-25T09:50:56;32.00;67.70
19680;DHT22;9989;48.962;9.182;2022-07-25T09:53:23;32.10;69.30
19680;DHT22;9989;48.962;9.182;2022-07-25T09:55:48;32.10;67.30
19680;DHT22;9989;48.962;9.182;2022-07-25T09:58:14;32.30;68.40
19680;DHT22;9989;48.962;9.182;2022-07-25T10:00:40;32.40;67.80
19680;DHT22;9989;48.962;9.182;2022-07-25T10:03:24;32.40;68.20
19680;DHT22;9989;48.962;9.182;2022-07-25T10:08:36;32.60;63.90
19680;DHT22;9989;48.962;9.182;2022-07-25T10:11:02;32.60;62.80
19680;DHT22;9989;48.962;9.182;2022-07-25T10:13:32;32.70;64.00
19680;DHT22;9989;48.962;9.182;2022-07-25T10:16:14;32.90;62.70
19680;DHT22;9989;48.962;9.182;2022-07-25T10:18:47;33.00;63.80
19680;DHT22;9989;48.962;9.182;2022-07-25T10:21:13;33.00;62.10
19680;DHT22;9989;48.962;9.182;2022-07-25T10:23:39;33.10;62.90
19680;DHT22;9989;48.962;9.182;2022-07-25T10:26:09;33.20;61.20
19680;DHT22;9989;48.962;9.182;2022-07-25T10:28:43;33.30;61.00
19680;DHT22;9989;48.962;9.182;2022-07-25T10:33:47;33.50;60.40
19680;DHT22;9989;48.962;9.182;2022-07-25T10:36:14;33.70;58.50
19680;DHT22;9989;48.962;9.182;2022-07-25T10:38:43;33.70;58.00
19680;DHT22;9989;48.962;9.182;2022-07-25T10:41:22;33.80;57.50
19680;DHT22;9989;48.962;9.182;2022-07-25T10:43:49;33.90;57.60
19680;DHT22;9989;48.962;9.182;2022-07-25T10:46:19;34.00;57.40
19680;DHT22;9989;48.962;9.182;2022-07-25T10:49:00;34.10;56.40
19680;DHT22;9989;48.962;9.182;2022-07-25T10:51:31;34.20;56.70
19680;DHT22;9989;48.962;9.182;2022-07-25T10:53:57;34.20;57.60
19680;DHT22;9989;48.962;9.182;2022-07-25T10:56:26;34.20;57.60
19680;DHT22;9989;48.962;9.182;2022-07-25T10:58:57;34.30;57.00
19680;DHT22;9989;48.962;9.182;2022-07-25T11:03:56;34.30;57.40
19680;DHT22;9989;48.962;9.182;2022-07-25T11:06:29;34.40;57.00
19680;DHT22;9989;48.962;9.182;2022-07-25T11:08:56;34.40;55.70
19680;DHT22;9989;48.962;9.182;2022-07-25T11:11:35;34.40;56.50
19680;DHT22;9989;48.962;9.182;2022-07-25T11:14:01;34.50;57.60
19680;DHT22;9989;48.962;9.182;2022-07-25T11:16:28;34.50;57.80
19680;DHT22;9989;48.962;9.182;2022-07-25T11:18:54;34.60;57.70
19680;DHT22;9989;48.962;9.182;2022-07-25T11:21:20;34.70;56.90
19680;DHT22;9989;48.962;9.182;2022-07-25T11:23:51;34.90;57.10
19680;DHT22;9989;48.962;9.182;2022-07-25T11:26:17;35.00;56.90
19680;DHT22;9989;48.962;9.182;2022-07-25T11:28:48;35.00;55.00
19680;DHT22;9989;48.962;9.182;2022-07-25T11:31:16;35.10;55.60
19680;DHT22;9989;48.962;9.182;2022-07-25T11:33:44;35.20;54.90
19680;DHT22;9989;48.962;9.182;2022-07-25T11:36:10;35.20;55.80
19680;DHT22;9989;48.962;9.182;2022-07-25T11:38:38;35.30;56.10
19680;DHT22;9989;48.962;9.182;2022-07-25T11:41:04;35.50;54.50
19680;DHT22;9989;48.962;9.182;2022-07-25T11:43:30;35.60;52.90
19680;DHT22;9989;48.962;9.182;2022-07-25T11:45:58;35.70;53.90
19680;DHT22;9989;48.962;9.182;2022-07-25T11:48:35;35.80;51.20
19680;DHT22;9989;48.962;9.182;2022-07-25T11:51:34;35.90;52.30
19680;DHT22;9989;48.962;9.182;2022-07-25T11:54:09;35.90;51.60
19680;DHT22;9989;48.962;9.182;2022-07-25T11:56:37;36.00;51.10
19680;DHT22;9989;48.962;9.182;2022-07-25T11:59:03;35.90;51.00
19680;DHT22;9989;48.962;9.182;2022-07-25T12:01:36;35.90;51.40
19680;DHT22;9989;48.962;9.182;2022-07-25T12:04:18;35.90;51.80
19680;DHT22;9989;48.962;9.182;2022-07-25T12:06:46;36.00;52.50
19680;DHT22;9989;48.962;9.182;2022-07-25T12:09:14;36.10;51.90
19680;DHT22;9989;48.962;9.182;2022-07-25T12:11:41;36.20;50.60
19680;DHT22;9989;48.962;9.182;2022-07-25T12:14:07;36.20;50.30
19680;DHT22;9989;48.962;9.182;2022-07-25T12:16:33;36.30;50.30
19680;DHT22;9989;48.962;9.182;2022-07-25T12:18:59;36.20;50.70
19680;DHT22;9989;48.962;9.182;2022-07-25T12:21:26;36.30;50.70
19680;DHT22;9989;48.962;9.182;2022-07-25T12:23:51;36.30;51.40
19680;DHT22;9989;48.962;9.182;2022-07-25T12:26:17;36.30;51.50
19680;DHT22;9989;48.962;9.182;2022-07-25T12:28:43;36.40;51.20
19680;DHT22;9989;48.962;9.182;2022-07-25T12:31:09;36.40;50.90
19680;DHT22;9989;48.962;9.182;2022-07-25T12:33:34;36.30;50.60
19680;DHT22;9989;48.962;9.182;2022-07-25T12:36:00;36.30;50.80
19680;DHT22;9989;48.962;9.182;2022-07-25T12:38:26;36.20;51.10
19680;DHT22;9989;48.962;9.182;2022-07-25T12:40:52;36.10;51.50
19680;DHT22;9989;48.962;9.182;2022-07-25T12:43:19;36.00;50.70
19680;DHT22;9989;48.962;9.182;2022-07-25T12:45:44;35.90;50.70
19680;DHT22;9989;48.962;9.182;2022-07-25T12:48:12;35.70;51.70
19680;DHT22;9989;48.962;9.182;2022-07-25T12:50:40;35.50;52.70
19680;DHT22;9989;48.962;9.182;2022-07-25T12:53:06;35.30;52.70
19680;DHT22;9989;48.962;9.182;2022-07-25T12:55:31;35.30;53.60
19680;DHT22;9989;48.962;9.182;2022-07-25T12:57:57;35.20;53.10
19680;DHT22;9989;48.962;9.182;2022-07-25T13:00:23;35.10;53.40
19680;DHT22;9989;48.962;9.182;2022-07-25T13:02:50;35.10;54.00
19680;DHT22;9989;48.962;9.182;2022-07-25T13:05:18;35.30;54.20
19680;DHT22;9989;48.962;9.182;2022-07-25T13:07:44;35.40;54.40
19680;DHT22;9989;48.962;9.182;2022-07-25T13:10:10;35.50;54.90
19680;DHT22;9989;48.962;9.182;2022-07-25T13:12:37;35.60;53.90
19680;DHT22;9989;48.962;9.182;2022-07-25T13:15:03;35.70;53.20
19680;DHT22;9989;48.962;9.182;2022-07-25T13:17:30;35.70;53.30
19680;DHT22;9989;48.962;9.182;2022-07-25T13:19:56;35.70;53.10
19680;DHT22;9989;48.962;9.182;2022-07-25T13:22:22;35.70;53.30
19680;DHT22;9989;48.962;9.182;2022-07-25T13:24:48;35.70;54.00
19680;DHT22;9989;48.962;9.182;2022-07-25T13:27:17;35.70;53.20
19680;DHT22;9989;48.962;9.182;2022-07-25T13:29:42;35.80;53.00
19680;DHT22;9989;48.962;9.182;2022-07-25T13:32:08;35.90;52.00
19680;DHT22;9989;48.962;9.182;2022-07-25T13:34:34;35.90;53.30
19680;DHT22;9989;48.962;9.182;2022-07-25T13:36:59;35.90;52.90
19680;DHT22;9989;48.962;9.182;2022-07-25T13:39:25;35.90;52.70
19680;DHT22;9989;48.962;9.182;2022-07-25T13:41:51;35.90;53.30
19680;DHT22;9989;48.962;9.182;2022-07-25T13:44:17;35.90;52.10
19680;DHT22;9989;48.962;9.182;2022-07-25T13:46:42;35.90;52.40
19680;DHT22;9989;48.962;9.182;2022-07-25T13:49:10;35.80;52.30
19680;DHT22;9989;48.962;9.182;2022-07-25T13:51:36;35.80;52.60
19680;DHT22;9989;48.962;9.182;2022-07-25T13:54:02;35.70;53.00
19680;DHT22;9989;48.962;9.182;2022-07-25T13:56:28;35.70;53.10
19680;DHT22;9989;48.962;9.182;2022-07-25T13:58:53;35.60;53.10
19680;DHT22;9989;48.962;9.182;2022-07-25T14:01:19;35.40;52.90
19680;DHT22;9989;48.962;9.182;2022-07-25T14:03:45;35.30;53.80
19680;DHT22;9989;48.962;9.182;2022-07-25T14:06:10;35.10;54.40
19680;DHT22;9989;48.962;9.182;2022-07-25T14:08:38;35.00;54.70
19680;DHT22;9989;48.962;9.182;2022-07-25T14:11:05;34.80;54.30
19680;DHT22;9989;48.962;9.182;2022-07-25T14:13:30;34.60;54.80
19680;DHT22;9989;48.962;9.182;2022-07-25T14:15:58;34.40;55.40
19680;DHT22;9989;48.962;9.182;2022-07-25T14:18:24;34.30;60.00
19680;DHT22;9989;48.962;9.182;2022-07-25T14:20:49;34.10;66.80
19680;DHT22;9989;48.962;9.182;2022-07-25T14:23:15;33.80;66.70
19680;DHT22;9989;48.962;9.182;2022-07-25T14:25:41;33.40;67.10
19680;DHT22;9989;48.962;9.182;2022-07-25T14:28:07;33.30;71.90
19680;DHT22;9989;48.962;9.182;2022-07-25T14:30:33;33.10;74.10
19680;DHT22;9989;48.962;9.182;2022-07-25T14:32:58;33.00;74.10
19680;DHT22;9989;48.962;9.182;2022-07-25T14:35:24;33.00;74.50
19680;DHT22;9989;48.962;9.182;2022-07-25T14:37:49;33.00;68.10
19680;DHT22;9989;48.962;9.182;2022-07-25T14:40:15;33.10;68.60
19680;DHT22;9989;48.962;9.182;2022-07-25T14:42:41;33.30;65.30
19680;DHT22;9989;48.962;9.182;2022-07-25T14:45:07;33.40;64.30
19680;DHT22;9989;48.962;9.182;2022-07-25T14:47:33;33.70;63.10
19680;DHT22;9989;48.962;9.182;2022-07-25T14:49:59;33.80;60.70
19680;DHT22;9989;48.962;9.182;2022-07-25T14:52:26;33.90;59.60
19680;DHT22;9989;48.962;9.182;2022-07-25T14:54:51;34.00;59.50
19680;DHT22;9989;48.962;9.182;2022-07-25T14:57:17;34.10;58.60
19680;DHT22;9989;48.962;9.182;2022-07-25T14:59:43;34.10;58.10
19680;DHT22;9989;48.962;9.182;2022-07-25T15:02:08;34.10;59.10
19680;DHT22;9989;48.962;9.182;2022-07-25T15:04:35;34.10;57.90
19680;DHT22;9989;48.962;9.182;2022-07-25T15:07:01;34.00;57.40
19680;DHT22;9989;48.962;9.182;2022-07-25T15:09:27;33.90;57.80
19680;DHT22;9989;48.962;9.182;2022-07-25T15:11:52;33.90;57.80
19680;DHT22;9989;48.962;9.182;2022-07-25T15:14:18;33.80;58.10
19680;DHT22;9989;48.962;9.182;2022-07-25T15:16:44;33.60;58.60
19680;DHT22;9989;48.962;9.182;2022-07-25T15:19:09;33.60;58.30
19680;DHT22;9989;48.962;9.182;2022-07-25T15:21:36;33.60;58.50
19680;DHT22;9989;48.962;9.182;2022-07-25T15:24:02;33.50;59.20
19680;DHT22;9989;48.962;9.182;2022-07-25T15:26:28;33.50;60.40
19680;DHT22;9989;48.962;9.182;2022-07-25T15:28:53;33.40;60.60
19680;DHT22;9989;48.962;9.182;2022-07-25T15:31:19;33.40;61.10
19680;DHT22;9989;48.962;9.182;2022-07-25T15:33:47;33.40;61.00
19680;DHT22;9989;48.962;9.182;2022-07-25T15:36:13;33.30;60.60
19680;DHT22;9989;48.962;9.182;2022-07-25T15:38:39;33.30;60.80
19680;DHT22;9989;48.962;9.182;2022-07-25T15:41:04;33.20;61.20
19680;DHT22;9989;48.962;9.182;2022-07-25T15:43:30;33.10;61.20
19680;DHT22;9989;48.962;9.182;2022-07-25T15:45:57;33.00;60.60
19680;DHT22;9989;48.962;9.182;2022-07-25T15:48:23;32.90;61.70
19680;DHT22;9989;48.962;9.182;2022-07-25T15:50:51;32.80;62.30